sensor_id;sensor_type;location;lat;lon;timestamp;P1;durP1;ratioP1;P2;durP2;ratioP2
23555;SDS011;11956;53.184;8.578;2022-12-10T00:02:51;59.22;;;30.30;;
23555;SDS011;11956;53.184;8.578;2022-12-10T00:05:52;67.60;;;30.70;;
23555;SDS011;11956;53.184;8.578;2022-12-10T00:08:53;66.85;;;32.58;;
23555;SDS011;11956;53.184;8.578;2022-12-10T00:11:54;64.22;;;30.00;;
23555;SDS011;11956;53.184;8.578;2022-12-10T00:14:55;61.85;;;31.38;;
23555;SDS011;11956;53.184;8.578;2022-12-10T00:17:56;62.97;;;30.75;;
23555;SDS011;11956;53.184;8.578;2022-12-10T00:20:56;63.38;;;30.90;;
23555;SDS011;11956;53.184;8.578;2022-12-10T00:23:58;70.13;;;33.15;;
23555;SDS011;11956;53.184;8.578;2022-12-10T00:26:59;59.22;;;30.58;;
23555;SDS011;11956;53.184;8.578;2022-12-10T00:30:00;65.00;;;30.98;;
23555;SDS011;11956;53.184;8.578;2022-12-10T00:33:01;67.55;;;30.63;;
23555;SDS011;11956;53.184;8.578;2022-12-10T00:36:03;57.78;;;29.58;;
23555;SDS011;11956;53.184;8.578;2022-12-10T00:39:06;64.93;;;32.38;;
23555;SDS011;11956;53.184;8.578;2022-12-10T00:42:07;64.40;;;31.60;;
23555;SDS011;11956;53.184;8.578;2022-12-10T00:45:08;70.35;;;33.70;;
23555;SDS011;11956;53.184;8.578;2022-12-10T00:48:09;59.92;;;29.90;;
23555;SDS011;11956;53.184;8.578;2022-12-10T00:51:11;60.63;;;29.33;;
23555;SDS011;11956;53.184;8.578;2022-12-10T00:54:16;67.75;;;33.00;;
23555;SDS011;11956;53.184;8.578;2022-12-10T00:57:17;66.97;;;33.25;;
23555;SDS011;11956;53.184;8.578;2022-12-10T01:00:18;69.55;;;33.28;;
23555;SDS011;11956;53.184;8.578;2022-12-10T01:03:19;73.90;;;33.63;;
23555;SDS011;11956;53.184;8.578;2022-12-10T01:06:28;72.10;;;33.83;;
23555;SDS011;11956;53.184;8.578;2022-12-10T01:09:32;72.78;;;34.33;;
23555;SDS011;11956;53.184;8.578;2022-12-10T01:12:33;72.90;;;34.67;;
23555;SDS011;11956;53.184;8.578;2022-12-10T01:15:36;70.60;;;33.10;;
23555;SDS011;11956;53.184;8.578;2022-12-10T01:18:39;70.18;;;33.42;;
23555;SDS011;11956;53.184;8.578;2022-12-10T01:21:40;72.43;;;34.17;;
23555;SDS011;11956;53.184;8.578;2022-12-10T01:24:42;78.55;;;34.97;;
23555;SDS011;11956;53.184;8.578;2022-12-10T01:27:42;82.22;;;36.60;;
23555;SDS011;11956;53.184;8.578;2022-12-10T01:30:43;76.35;;;35.72;;
23555;SDS011;11956;53.184;8.578;2022-12-10T01:33:44;79.82;;;35.67;;
23555;SDS011;11956;53.184;8.578;2022-12-10T01:36:48;84.85;;;36.97;;
23555;SDS011;11956;53.184;8.578;2022-12-10T01:39:52;81.55;;;35.67;;
23555;SDS011;11956;53.184;8.578;2022-12-10T01:42:53;81.22;;;37.30;;
23555;SDS011;11956;53.184;8.578;2022-12-10T01:45:54;79.93;;;35.85;;
23555;SDS011;11956;53.184;8.578;2022-12-10T01:48:54;86.22;;;37.83;;
23555;SDS011;11956;53.184;8.578;2022-12-10T01:51:56;84.65;;;35.85;;
23555;SDS011;11956;53.184;8.578;2022-12-10T01:54:57;83.20;;;36.45;;
23555;SDS011;11956;53.184;8.578;2022-12-10T01:57:58;80.43;;;35.83;;
23555;SDS011;11956;53.184;8.578;2022-12-10T02:08:18;79.65;;;35.90;;
23555;SDS011;11956;53.184;8.578;2022-12-10T02:11:31;78.93;;;35.53;;
23555;SDS011;11956;53.184;8.578;2022-12-10T02:18:25;77.65;;;35.47;;
23555;SDS011;11956;53.184;8.578;2022-12-10T02:21:36;80.80;;;36.92;;
23555;SDS011;11956;53.184;8.578;2022-12-10T02:24:41;80.35;;;36.67;;
23555;SDS011;11956;53.184;8.578;2022-12-10T02:31:26;76.90;;;35.90;;
23555;SDS011;11956;53.184;8.578;2022-12-10T02:34:30;74.85;;;35.10;;
23555;SDS011;11956;53.184;8.578;2022-12-10T02:37:48;75.43;;;35.28;;
23555;SDS011;11956;53.184;8.578;2022-12-10T02:40:57;85.57;;;36.63;;
23555;SDS011;11956;53.184;8.578;2022-12-10T02:44:04;84.72;;;38.35;;
23555;SDS011;11956;53.184;8.578;2022-12-10T02:47:09;87.10;;;38.10;;
23555;SDS011;11956;53.184;8.578;2022-12-10T02:50:16;79.18;;;35.97;;
23555;SDS011;11956;53.184;8.578;2022-12-10T02:53:23;78.82;;;36.28;;
23555;SDS011;11956;53.184;8.578;2022-12-10T02:56:27;80.22;;;36.60;;
23555;SDS011;11956;53.184;8.578;2022-12-10T03:00:21;76.70;;;36.58;;
23555;SDS011;11956;53.184;8.578;2022-12-10T03:06:53;80.38;;;35.90;;
23555;SDS011;11956;53.184;8.578;2022-12-10T03:10:09;72.90;;;34.80;;
23555;SDS011;11956;53.184;8.578;2022-12-10T03:17:13;79.70;;;35.80;;
23555;SDS011;11956;53.184;8.578;2022-12-10T03:20:16;74.85;;;35.40;;
23555;SDS011;11956;53.184;8.578;2022-12-10T03:23:17;72.43;;;34.75;;
23555;SDS011;11956;53.184;8.578;2022-12-10T03:26:20;71.57;;;35.28;;
23555;SDS011;11956;53.184;8.578;2022-12-10T03:29:24;75.40;;;34.80;;
23555;SDS011;11956;53.184;8.578;2022-12-10T03:32:35;74.10;;;35.15;;
23555;SDS011;11956;53.184;8.578;2022-12-10T03:35:37;78.13;;;36.75;;
23555;SDS011;11956;53.184;8.578;2022-12-10T03:38:39;76.95;;;35.58;;
23555;SDS011;11956;53.184;8.578;2022-12-10T03:41:41;77.13;;;34.40;;
23555;SDS011;11956;53.184;8.578;2022-12-10T03:44:42;81.45;;;36.10;;
23555;SDS011;11956;53.184;8.578;2022-12-10T03:47:43;76.05;;;35.53;;
23555;SDS011;11956;53.184;8.578;2022-12-10T03:50:44;79.10;;;35.92;;
23555;SDS011;11956;53.184;8.578;2022-12-10T03:53:45;75.00;;;34.67;;
23555;SDS011;11956;53.184;8.578;2022-12-10T03:56:46;75.60;;;34.90;;
23555;SDS011;11956;53.184;8.578;2022-12-10T03:59:47;72.78;;;33.75;;
23555;SDS011;11956;53.184;8.578;2022-12-10T04:02:48;76.93;;;35.40;;
23555;SDS011;11956;53.184;8.578;2022-12-10T04:05:48;69.93;;;33.80;;
23555;SDS011;11956;53.184;8.578;2022-12-10T04:08:49;71.85;;;33.55;;
23555;SDS011;11956;53.184;8.578;2022-12-10T04:11:56;69.65;;;33.60;;
23555;SDS011;11956;53.184;8.578;2022-12-10T04:14:58;80.28;;;36.05;;
23555;SDS011;11956;53.184;8.578;2022-12-10T04:18:17;74.32;;;33.33;;
23555;SDS011;11956;53.184;8.578;2022-12-10T04:21:18;70.22;;;34.05;;
23555;SDS011;11956;53.184;8.578;2022-12-10T04:24:37;70.97;;;33.88;;
23555;SDS011;11956;53.184;8.578;2022-12-10T04:27:57;70.28;;;33.13;;
23555;SDS011;11956;53.184;8.578;2022-12-10T04:30:58;70.22;;;33.08;;
23555;SDS011;11956;53.184;8.578;2022-12-10T04:33:59;72.13;;;33.85;;
23555;SDS011;11956;53.184;8.578;2022-12-10T04:37:00;68.55;;;32.30;;
23555;SDS011;11956;53.184;8.578;2022-12-10T04:40:02;68.55;;;32.97;;
23555;SDS011;11956;53.184;8.578;2022-12-10T04:43:04;66.63;;;32.65;;
23555;SDS011;11956;53.184;8.578;2022-12-10T04:46:05;66.40;;;33.85;;
23555;SDS011;11956;53.184;8.578;2022-12-10T04:49:06;65.63;;;31.90;;
23555;SDS011;11956;53.184;8.578;2022-12-10T04:52:08;65.13;;;31.17;;
23555;SDS011;11956;53.184;8.578;2022-12-10T04:55:12;58.17;;;30.85;;
23555;SDS011;11956;53.184;8.578;2022-12-10T04:58:13;56.58;;;29.70;;
23555;SDS011;11956;53.184;8.578;2022-12-10T05:01:14;60.58;;;30.13;;
23555;SDS011;11956;53.184;8.578;2022-12-10T05:04:15;56.40;;;28.58;;
23555;SDS011;11956;53.184;8.578;2022-12-10T05:07:18;54.63;;;28.95;;
23555;SDS011;11956;53.184;8.578;2022-12-10T05:10:19;50.83;;;27.63;;
23555;SDS011;11956;53.184;8.578;2022-12-10T05:13:20;49.92;;;26.83;;
23555;SDS011;11956;53.184;8.578;2022-12-10T05:16:21;46.65;;;25.85;;
23555;SDS011;11956;53.184;8.578;2022-12-10T05:19:25;36.65;;;20.83;;
23555;SDS011;11956;53.184;8.578;2022-12-10T05:22:28;44.40;;;24.75;;
23555;SDS011;11956;53.184;8.578;2022-12-10T05:26:11;49.67;;;26.88;;
23555;SDS011;11956;53.184;8.578;2022-12-10T05:29:18;45.53;;;25.10;;
23555;SDS011;11956;53.184;8.578;2022-12-10T05:32:19;46.85;;;26.02;;
23555;SDS011;11956;53.184;8.578;2022-12-10T05:35:20;44.33;;;25.10;;
23555;SDS011;11956;53.184;8.578;2022-12-10T05:38:21;45.92;;;25.38;;
23555;SDS011;11956;53.184;8.578;2022-12-10T05:41:24;47.00;;;25.65;;
23555;SDS011;11956;53.184;8.578;2022-12-10T05:44:30;46.40;;;25.70;;
23555;SDS011;11956;53.184;8.578;2022-12-10T05:47:31;47.28;;;26.10;;
23555;SDS011;11956;53.184;8.578;2022-12-10T05:50:33;44.33;;;23.98;;
23555;SDS011;11956;53.184;8.578;2022-12-10T05:53:34;46.33;;;25.05;;
23555;SDS011;11956;53.184;8.578;2022-12-10T05:56:36;45.00;;;25.45;;
23555;SDS011;11956;53.184;8.578;2022-12-10T05:59:37;46.33;;;25.10;;
23555;SDS011;11956;53.184;8.578;2022-12-10T06:02:38;44.92;;;25.30;;
23555;SDS011;11956;53.184;8.578;2022-12-10T06:05:39;44.47;;;24.67;;
23555;SDS011;11956;53.184;8.578;2022-12-10T06:08:40;45.13;;;25.63;;
23555;SDS011;11956;53.184;8.578;2022-12-10T06:11:42;48.67;;;25.58;;
23555;SDS011;11956;53.184;8.578;2022-12-10T06:14:43;43.00;;;24.25;;
23555;SDS011;11956;53.184;8.578;2022-12-10T06:17:43;44.20;;;24.60;;
23555;SDS011;11956;53.184;8.578;2022-12-10T06:20:44;44.17;;;25.67;;
23555;SDS011;11956;53.184;8.578;2022-12-10T06:23:46;44.55;;;25.60;;
23555;SDS011;11956;53.184;8.578;2022-12-10T06:26:48;47.28;;;25.60;;
23555;SDS011;11956;53.184;8.578;2022-12-10T06:29:49;45.47;;;25.60;;
23555;SDS011;11956;53.184;8.578;2022-12-10T06:32:50;44.78;;;25.45;;
23555;SDS011;11956;53.184;8.578;2022-12-10T06:35:51;46.45;;;26.55;;
23555;SDS011;11956;53.184;8.578;2022-12-10T06:38:52;47.05;;;26.88;;
23555;SDS011;11956;53.184;8.578;2022-12-10T06:41:53;44.88;;;25.27;;
23555;SDS011;11956;53.184;8.578;2022-12-10T06:44:54;43.42;;;25.10;;
23555;SDS011;11956;53.184;8.578;2022-12-10T06:47:56;42.08;;;23.85;;
23555;SDS011;11956;53.184;8.578;2022-12-10T06:50:57;43.03;;;24.58;;
23555;SDS011;11956;53.184;8.578;2022-12-10T06:53:58;44.85;;;25.83;;
23555;SDS011;11956;53.184;8.578;2022-12-10T06:56:59;44.00;;;24.80;;
23555;SDS011;11956;53.184;8.578;2022-12-10T07:00:01;44.63;;;25.30;;
23555;SDS011;11956;53.184;8.578;2022-12-10T07:03:02;43.30;;;25.40;;
23555;SDS011;11956;53.184;8.578;2022-12-10T07:06:04;40.95;;;23.80;;
23555;SDS011;11956;53.184;8.578;2022-12-10T07:09:08;45.70;;;26.15;;
23555;SDS011;11956;53.184;8.578;2022-12-10T07:12:12;48.70;;;26.65;;
23555;SDS011;11956;53.184;8.578;2022-12-10T07:15:13;43.35;;;24.95;;
23555;SDS011;11956;53.184;8.578;2022-12-10T07:18:14;43.90;;;24.85;;
23555;SDS011;11956;53.184;8.578;2022-12-10T07:21:22;45.65;;;26.25;;
23555;SDS011;11956;53.184;8.578;2022-12-10T07:24:33;43.40;;;25.98;;
23555;SDS011;11956;53.184;8.578;2022-12-10T07:27:33;45.80;;;25.45;;
23555;SDS011;11956;53.184;8.578;2022-12-10T07:30:35;46.40;;;26.25;;
23555;SDS011;11956;53.184;8.578;2022-12-10T07:33:36;40.90;;;24.38;;
23555;SDS011;11956;53.184;8.578;2022-12-10T07:36:37;44.15;;;24.40;;
23555;SDS011;11956;53.184;8.578;2022-12-10T07:39:38;45.28;;;25.08;;
23555;SDS011;11956;53.184;8.578;2022-12-10T07:42:39;49.33;;;26.33;;
23555;SDS011;11956;53.184;8.578;2022-12-10T07:45:40;47.20;;;25.23;;
23555;SDS011;11956;53.184;8.578;2022-12-10T07:48:41;41.50;;;24.58;;
23555;SDS011;11956;53.184;8.578;2022-12-10T07:51:44;43.37;;;24.37;;
23555;SDS011;11956;53.184;8.578;2022-12-10T07:54:47;44.55;;;25.73;;
23555;SDS011;11956;53.184;8.578;2022-12-10T07:57:48;42.30;;;25.77;;
23555;SDS011;11956;53.184;8.578;2022-12-10T08:00:49;47.58;;;26.80;;
23555;SDS011;11956;53.184;8.578;2022-12-10T08:03:50;42.78;;;25.42;;
23555;SDS011;11956;53.184;8.578;2022-12-10T08:06:54;43.08;;;25.35;;
23555;SDS011;11956;53.184;8.578;2022-12-10T08:09:55;48.30;;;27.58;;
23555;SDS011;11956;53.184;8.578;2022-12-10T08:12:56;43.05;;;25.77;;
23555;SDS011;11956;53.184;8.578;2022-12-10T08:16:00;42.92;;;25.75;;
23555;SDS011;11956;53.184;8.578;2022-12-10T08:19:15;43.38;;;25.10;;
23555;SDS011;11956;53.184;8.578;2022-12-10T08:22:16;43.05;;;26.38;;
23555;SDS011;11956;53.184;8.578;2022-12-10T08:25:18;42.90;;;25.85;;
23555;SDS011;11956;53.184;8.578;2022-12-10T08:28:19;45.40;;;25.52;;
23555;SDS011;11956;53.184;8.578;2022-12-10T08:31:20;43.88;;;25.38;;
23555;SDS011;11956;53.184;8.578;2022-12-10T08:34:22;41.58;;;25.70;;
23555;SDS011;11956;53.184;8.578;2022-12-10T08:37:23;42.97;;;25.20;;
23555;SDS011;11956;53.184;8.578;2022-12-10T08:40:24;44.30;;;25.35;;
23555;SDS011;11956;53.184;8.578;2022-12-10T08:43:25;42.40;;;25.00;;
23555;SDS011;11956;53.184;8.578;2022-12-10T08:46:26;37.58;;;24.00;;
23555;SDS011;11956;53.184;8.578;2022-12-10T08:49:27;39.75;;;24.38;;
23555;SDS011;11956;53.184;8.578;2022-12-10T08:52:27;43.13;;;24.90;;
23555;SDS011;11956;53.184;8.578;2022-12-10T08:55:29;39.92;;;24.10;;
23555;SDS011;11956;53.184;8.578;2022-12-10T08:58:30;39.58;;;24.05;;
23555;SDS011;11956;53.184;8.578;2022-12-10T09:01:31;40.35;;;23.48;;
23555;SDS011;11956;53.184;8.578;2022-12-10T09:04:32;36.78;;;22.63;;
23555;SDS011;11956;53.184;8.578;2022-12-10T09:07:33;32.67;;;20.20;;
23555;SDS011;11956;53.184;8.578;2022-12-10T09:10:37;36.20;;;21.83;;
23555;SDS011;11956;53.184;8.578;2022-12-10T09:13:39;37.35;;;21.13;;
23555;SDS011;11956;53.184;8.578;2022-12-10T09:16:41;34.72;;;20.95;;
23555;SDS011;11956;53.184;8.578;2022-12-10T09:19:43;36.85;;;22.10;;
23555;SDS011;11956;53.184;8.578;2022-12-10T09:22:44;37.65;;;22.38;;
23555;SDS011;11956;53.184;8.578;2022-12-10T09:25:45;32.70;;;20.40;;
23555;SDS011;11956;53.184;8.578;2022-12-10T09:28:46;37.45;;;22.60;;
23555;SDS011;11956;53.184;8.578;2022-12-10T09:31:51;34.72;;;20.90;;
23555;SDS011;11956;53.184;8.578;2022-12-10T09:34:52;30.92;;;19.20;;
23555;SDS011;11956;53.184;8.578;2022-12-10T09:37:53;32.60;;;18.98;;
23555;SDS011;11956;53.184;8.578;2022-12-10T09:47:35;27.73;;;16.10;;
23555;SDS011;11956;53.184;8.578;2022-12-10T09:54:24;26.58;;;16.40;;
23555;SDS011;11956;53.184;8.578;2022-12-10T09:57:28;24.27;;;15.32;;
23555;SDS011;11956;53.184;8.578;2022-12-10T10:00:34;24.48;;;15.80;;
23555;SDS011;11956;53.184;8.578;2022-12-10T10:03:40;22.65;;;14.32;;
23555;SDS011;11956;53.184;8.578;2022-12-10T10:06:42;24.98;;;15.05;;
23555;SDS011;11956;53.184;8.578;2022-12-10T10:09:43;25.67;;;15.27;;
23555;SDS011;11956;53.184;8.578;2022-12-10T10:12:46;23.42;;;14.95;;
23555;SDS011;11956;53.184;8.578;2022-12-10T10:15:58;25.92;;;14.73;;
23555;SDS011;11956;53.184;8.578;2022-12-10T10:19:33;24.15;;;14.20;;
23555;SDS011;11956;53.184;8.578;2022-12-10T10:22:39;21.27;;;14.32;;
23555;SDS011;11956;53.184;8.578;2022-12-10T10:25:41;21.88;;;14.07;;
23555;SDS011;11956;53.184;8.578;2022-12-10T10:28:42;20.15;;;13.63;;
23555;SDS011;11956;53.184;8.578;2022-12-10T10:31:45;21.07;;;13.23;;
23555;SDS011;11956;53.184;8.578;2022-12-10T10:34:53;23.98;;;15.63;;
23555;SDS011;11956;53.184;8.578;2022-12-10T10:38:06;22.23;;;13.30;;
23555;SDS011;11956;53.184;8.578;2022-12-10T10:41:15;22.83;;;14.18;;
23555;SDS011;11956;53.184;8.578;2022-12-10T10:44:19;22.50;;;12.88;;
23555;SDS011;11956;53.184;8.578;2022-12-10T10:47:30;23.95;;;13.48;;
23555;SDS011;11956;53.184;8.578;2022-12-10T10:50:41;21.58;;;13.05;;
23555;SDS011;11956;53.184;8.578;2022-12-10T10:53:47;23.38;;;14.27;;
23555;SDS011;11956;53.184;8.578;2022-12-10T10:56:50;21.35;;;13.50;;
23555;SDS011;11956;53.184;8.578;2022-12-10T10:59:51;25.05;;;14.80;;
23555;SDS011;11956;53.184;8.578;2022-12-10T11:02:56;22.35;;;13.55;;
23555;SDS011;11956;53.184;8.578;2022-12-10T11:05:58;24.75;;;15.23;;
23555;SDS011;11956;53.184;8.578;2022-12-10T11:09:00;26.50;;;16.92;;
23555;SDS011;11956;53.184;8.578;2022-12-10T11:12:02;24.02;;;15.48;;
23555;SDS011;11956;53.184;8.578;2022-12-10T11:18:24;25.40;;;16.20;;
23555;SDS011;11956;53.184;8.578;2022-12-10T11:21:55;25.27;;;15.75;;
23555;SDS011;11956;53.184;8.578;2022-12-10T11:35:50;24.25;;;15.50;;
23555;SDS011;11956;53.184;8.578;2022-12-10T11:49:44;28.45;;;17.35;;
23555;SDS011;11956;53.184;8.578;2022-12-10T12:00:30;29.85;;;18.20;;
23555;SDS011;11956;53.184;8.578;2022-12-10T12:17:27;30.92;;;19.33;;
23555;SDS011;11956;53.184;8.578;2022-12-10T12:20:37;30.45;;;18.80;;
23555;SDS011;11956;53.184;8.578;2022-12-10T12:27:19;30.58;;;19.05;;
23555;SDS011;11956;53.184;8.578;2022-12-10T12:30:25;33.15;;;17.83;;
23555;SDS011;11956;53.184;8.578;2022-12-10T12:33:32;33.35;;;18.65;;
23555;SDS011;11956;53.184;8.578;2022-12-10T12:36:42;28.90;;;18.00;;
23555;SDS011;11956;53.184;8.578;2022-12-10T12:40:03;29.88;;;18.98;;
23555;SDS011;11956;53.184;8.578;2022-12-10T12:43:37;31.95;;;19.00;;
23555;SDS011;11956;53.184;8.578;2022-12-10T12:46:48;30.60;;;19.20;;
23555;SDS011;11956;53.184;8.578;2022-12-10T12:49:49;33.90;;;20.15;;
23555;SDS011;11956;53.184;8.578;2022-12-10T12:52:58;30.20;;;17.98;;
23555;SDS011;11956;53.184;8.578;2022-12-10T13:06:36;34.78;;;20.80;;
23555;SDS011;11956;53.184;8.578;2022-12-10T13:09:43;34.35;;;19.90;;
23555;SDS011;11956;53.184;8.578;2022-12-10T13:12:49;37.15;;;21.60;;
23555;SDS011;11956;53.184;8.578;2022-12-10T13:19:46;38.72;;;22.20;;
23555;SDS011;11956;53.184;8.578;2022-12-10T13:26:19;37.63;;;21.17;;
23555;SDS011;11956;53.184;8.578;2022-12-10T13:29:28;34.08;;;19.80;;
23555;SDS011;11956;53.184;8.578;2022-12-10T13:32:46;31.08;;;18.08;;
23555;SDS011;11956;53.184;8.578;2022-12-10T13:35:59;33.95;;;19.35;;
23555;SDS011;11956;53.184;8.578;2022-12-10T13:45:30;27.50;;;15.95;;
23555;SDS011;11956;53.184;8.578;2022-12-10T13:48:34;29.50;;;16.40;;
23555;SDS011;11956;53.184;8.578;2022-12-10T14:06:20;29.95;;;16.45;;
23555;SDS011;11956;53.184;8.578;2022-12-10T14:09:25;32.70;;;18.25;;
23555;SDS011;11956;53.184;8.578;2022-12-10T14:12:35;28.55;;;16.92;;
23555;SDS011;11956;53.184;8.578;2022-12-10T14:15:40;30.20;;;17.48;;
23555;SDS011;11956;53.184;8.578;2022-12-10T14:18:56;35.38;;;19.83;;
23555;SDS011;11956;53.184;8.578;2022-12-10T14:22:05;33.78;;;18.98;;
23555;SDS011;11956;53.184;8.578;2022-12-10T14:25:12;35.67;;;20.42;;
23555;SDS011;11956;53.184;8.578;2022-12-10T14:28:18;34.00;;;19.42;;
23555;SDS011;11956;53.184;8.578;2022-12-10T14:31:25;34.03;;;18.55;;
23555;SDS011;11956;53.184;8.578;2022-12-10T14:34:40;36.10;;;19.35;;
23555;SDS011;11956;53.184;8.578;2022-12-10T14:37:42;35.70;;;19.95;;
23555;SDS011;11956;53.184;8.578;2022-12-10T14:40:46;35.28;;;19.77;;
23555;SDS011;11956;53.184;8.578;2022-12-10T14:43:47;40.90;;;20.48;;
23555;SDS011;11956;53.184;8.578;2022-12-10T14:46:49;34.45;;;19.65;;
23555;SDS011;11956;53.184;8.578;2022-12-10T14:49:54;39.30;;;20.05;;
23555;SDS011;11956;53.184;8.578;2022-12-10T14:52:55;36.90;;;20.23;;
23555;SDS011;11956;53.184;8.578;2022-12-10T14:55:57;36.80;;;19.92;;
23555;SDS011;11956;53.184;8.578;2022-12-10T14:59:18;34.38;;;18.52;;
23555;SDS011;11956;53.184;8.578;2022-12-10T15:02:28;36.83;;;19.63;;
23555;SDS011;11956;53.184;8.578;2022-12-10T15:05:41;34.92;;;19.70;;
23555;SDS011;11956;53.184;8.578;2022-12-10T15:08:43;33.85;;;19.58;;
23555;SDS011;11956;53.184;8.578;2022-12-10T15:11:45;41.72;;;20.70;;
23555;SDS011;11956;53.184;8.578;2022-12-10T15:14:59;40.25;;;21.45;;
23555;SDS011;11956;53.184;8.578;2022-12-10T15:18:12;35.35;;;18.65;;
23555;SDS011;11956;53.184;8.578;2022-12-10T15:21:21;31.88;;;18.20;;
23555;SDS011;11956;53.184;8.578;2022-12-10T15:24:32;37.63;;;19.73;;
23555;SDS011;11956;53.184;8.578;2022-12-10T15:30:39;37.33;;;19.40;;
23555;SDS011;11956;53.184;8.578;2022-12-10T15:33:47;40.90;;;20.77;;
23555;SDS011;11956;53.184;8.578;2022-12-10T15:36:56;35.15;;;19.83;;
23555;SDS011;11956;53.184;8.578;2022-12-10T15:40:03;34.97;;;19.25;;
23555;SDS011;11956;53.184;8.578;2022-12-10T15:43:12;35.13;;;19.30;;
23555;SDS011;11956;53.184;8.578;2022-12-10T15:46:27;38.53;;;20.35;;
23555;SDS011;11956;53.184;8.578;2022-12-10T15:49:29;37.97;;;20.02;;
23555;SDS011;11956;53.184;8.578;2022-12-10T15:52:31;37.95;;;20.00;;
23555;SDS011;11956;53.184;8.578;2022-12-10T15:55:32;37.08;;;20.52;;
23555;SDS011;11956;53.184;8.578;2022-12-10T15:58:33;35.13;;;19.25;;
23555;SDS011;11956;53.184;8.578;2022-12-10T16:01:34;37.55;;;20.52;;
23555;SDS011;11956;53.184;8.578;2022-12-10T16:04:35;42.75;;;21.38;;
23555;SDS011;11956;53.184;8.578;2022-12-10T16:07:36;39.25;;;20.35;;
23555;SDS011;11956;53.184;8.578;2022-12-10T16:10:37;39.30;;;20.25;;
23555;SDS011;11956;53.184;8.578;2022-12-10T16:13:38;38.35;;;20.88;;
23555;SDS011;11956;53.184;8.578;2022-12-10T16:16:45;35.67;;;18.77;;
23555;SDS011;11956;53.184;8.578;2022-12-10T16:19:46;39.13;;;20.98;;
23555;SDS011;11956;53.184;8.578;2022-12-10T16:22:48;34.53;;;18.92;;
23555;SDS011;11956;53.184;8.578;2022-12-10T16:25:50;35.03;;;17.83;;
23555;SDS011;11956;53.184;8.578;2022-12-10T16:28:51;38.22;;;19.77;;
23555;SDS011;11956;53.184;8.578;2022-12-10T16:31:52;36.88;;;19.92;;
23555;SDS011;11956;53.184;8.578;2022-12-10T16:34:53;35.55;;;19.33;;
23555;SDS011;11956;53.184;8.578;2022-12-10T16:37:54;35.90;;;19.83;;
23555;SDS011;11956;53.184;8.578;2022-12-10T16:40:55;33.05;;;18.48;;
23555;SDS011;11956;53.184;8.578;2022-12-10T16:44:01;37.83;;;20.27;;
23555;SDS011;11956;53.184;8.578;2022-12-10T16:47:09;37.05;;;20.38;;
23555;SDS011;11956;53.184;8.578;2022-12-10T16:50:12;41.15;;;20.50;;
23555;SDS011;11956;53.184;8.578;2022-12-10T16:53:21;36.95;;;19.50;;
23555;SDS011;11956;53.184;8.578;2022-12-10T16:56:29;35.17;;;19.17;;
23555;SDS011;11956;53.184;8.578;2022-12-10T16:59:30;38.97;;;19.80;;
23555;SDS011;11956;53.184;8.578;2022-12-10T17:02:31;37.35;;;19.75;;
23555;SDS011;11956;53.184;8.578;2022-12-10T17:05:36;38.60;;;20.05;;
23555;SDS011;11956;53.184;8.578;2022-12-10T17:08:42;41.67;;;21.60;;
23555;SDS011;11956;53.184;8.578;2022-12-10T17:11:43;41.20;;;21.65;;
23555;SDS011;11956;53.184;8.578;2022-12-10T17:14:52;46.50;;;23.05;;
23555;SDS011;11956;53.184;8.578;2022-12-10T17:17:53;46.17;;;22.75;;
23555;SDS011;11956;53.184;8.578;2022-12-10T17:20:54;42.92;;;23.27;;
23555;SDS011;11956;53.184;8.578;2022-12-10T17:23:55;45.35;;;22.92;;
23555;SDS011;11956;53.184;8.578;2022-12-10T17:26:58;47.50;;;24.00;;
23555;SDS011;11956;53.184;8.578;2022-12-10T17:30:15;43.40;;;23.27;;
23555;SDS011;11956;53.184;8.578;2022-12-10T17:33:18;47.05;;;24.70;;
23555;SDS011;11956;53.184;8.578;2022-12-10T17:36:22;46.55;;;23.90;;
23555;SDS011;11956;53.184;8.578;2022-12-10T17:39:23;47.20;;;24.45;;
23555;SDS011;11956;53.184;8.578;2022-12-10T17:42:29;48.35;;;23.63;;
23555;SDS011;11956;53.184;8.578;2022-12-10T17:45:29;54.58;;;27.55;;
23555;SDS011;11956;53.184;8.578;2022-12-10T17:48:30;54.35;;;26.35;;
23555;SDS011;11956;53.184;8.578;2022-12-10T17:51:31;54.38;;;26.80;;
23555;SDS011;11956;53.184;8.578;2022-12-10T17:54:32;51.35;;;26.83;;
23555;SDS011;11956;53.184;8.578;2022-12-10T17:57:33;55.15;;;26.75;;
23555;SDS011;11956;53.184;8.578;2022-12-10T18:00:35;53.45;;;26.23;;
23555;SDS011;11956;53.184;8.578;2022-12-10T18:03:37;54.03;;;26.60;;
23555;SDS011;11956;53.184;8.578;2022-12-10T18:06:38;56.63;;;26.48;;
23555;SDS011;11956;53.184;8.578;2022-12-10T18:09:39;52.88;;;26.33;;
23555;SDS011;11956;53.184;8.578;2022-12-10T18:12:40;52.90;;;26.88;;
23555;SDS011;11956;53.184;8.578;2022-12-10T18:15:41;56.35;;;28.25;;
23555;SDS011;11956;53.184;8.578;2022-12-10T18:18:42;53.53;;;27.83;;
23555;SDS011;11956;53.184;8.578;2022-12-10T18:21:44;51.15;;;26.52;;
23555;SDS011;11956;53.184;8.578;2022-12-10T18:24:45;50.25;;;26.30;;
23555;SDS011;11956;53.184;8.578;2022-12-10T18:27:46;54.45;;;28.13;;
23555;SDS011;11956;53.184;8.578;2022-12-10T18:30:47;57.67;;;28.73;;
23555;SDS011;11956;53.184;8.578;2022-12-10T18:33:49;53.42;;;27.80;;
23555;SDS011;11956;53.184;8.578;2022-12-10T18:36:53;56.28;;;27.90;;
23555;SDS011;11956;53.184;8.578;2022-12-10T18:39:54;54.97;;;28.48;;
23555;SDS011;11956;53.184;8.578;2022-12-10T18:42:55;54.17;;;27.27;;
23555;SDS011;11956;53.184;8.578;2022-12-10T18:45:56;53.95;;;27.85;;
23555;SDS011;11956;53.184;8.578;2022-12-10T18:48:57;51.10;;;26.90;;
23555;SDS011;11956;53.184;8.578;2022-12-10T18:51:58;52.85;;;27.33;;
23555;SDS011;11956;53.184;8.578;2022-12-10T18:54:58;53.05;;;27.40;;
23555;SDS011;11956;53.184;8.578;2022-12-10T18:57:59;51.47;;;26.08;;
23555;SDS011;11956;53.184;8.578;2022-12-10T19:01:00;49.95;;;26.05;;
23555;SDS011;11956;53.184;8.578;2022-12-10T19:04:01;49.88;;;25.83;;
23555;SDS011;11956;53.184;8.578;2022-12-10T19:07:02;51.80;;;26.27;;
23555;SDS011;11956;53.184;8.578;2022-12-10T19:10:04;52.53;;;27.20;;
23555;SDS011;11956;53.184;8.578;2022-12-10T19:13:12;49.47;;;26.30;;
23555;SDS011;11956;53.184;8.578;2022-12-10T19:16:17;53.25;;;27.45;;
23555;SDS011;11956;53.184;8.578;2022-12-10T19:19:22;56.38;;;27.33;;
23555;SDS011;11956;53.184;8.578;2022-12-10T19:22:23;51.97;;;27.15;;
23555;SDS011;11956;53.184;8.578;2022-12-10T19:25:25;54.08;;;27.05;;
23555;SDS011;11956;53.184;8.578;2022-12-10T19:28:26;49.45;;;26.00;;
23555;SDS011;11956;53.184;8.578;2022-12-10T19:31:27;48.97;;;26.63;;
23555;SDS011;11956;53.184;8.578;2022-12-10T19:34:28;55.38;;;28.48;;
23555;SDS011;11956;53.184;8.578;2022-12-10T19:37:29;48.42;;;26.45;;
23555;SDS011;11956;53.184;8.578;2022-12-10T19:40:31;51.53;;;27.25;;
23555;SDS011;11956;53.184;8.578;2022-12-10T19:43:35;49.03;;;25.90;;
23555;SDS011;11956;53.184;8.578;2022-12-10T19:46:36;55.22;;;27.80;;
23555;SDS011;11956;53.184;8.578;2022-12-10T19:49:37;54.25;;;28.25;;
23555;SDS011;11956;53.184;8.578;2022-12-10T19:52:38;50.60;;;26.33;;
23555;SDS011;11956;53.184;8.578;2022-12-10T19:55:39;53.28;;;27.40;;
23555;SDS011;11956;53.184;8.578;2022-12-10T19:58:40;52.90;;;28.92;;
23555;SDS011;11956;53.184;8.578;2022-12-10T20:01:41;50.83;;;27.02;;